sensor_id;sensor_type;location;lat;lon;timestamp;pressure;altitude;pressure_sealevel;temperature;humidity
63556;BME280;49700;48.072;7.800;2023-03-15T00:01:56;99373.81;;;6.05;63.47
63556;BME280;49700;48.072;7.800;2023-03-15T00:04:22;99378.66;;;5.95;62.89
63556;BME280;49700;48.072;7.800;2023-03-15T00:06:49;99376.22;;;5.90;62.62
63556;BME280;49700;48.072;7.800;2023-03-15T00:09:15;99378.31;;;5.84;62.99
63556;BME280;49700;48.072;7.800;2023-03-15T00:11:43;99385.56;;;5.77;62.99
63556;BME280;49700;48.072;7.800;2023-03-15T00:14:09;99392.75;;;5.72;62.93
63556;BME280;49700;48.072;7.800;2023-03-15T00:16:35;99398.19;;;5.67;62.56
63556;BME280;49700;48.072;7.800;2023-03-15T00:19:00;99398.53;;;5.60;63.10
63556;BME280;49700;48.072;7.800;2023-03-15T00:21:26;99401.41;;;5.53;63.35
63556;BME280;49700;48.072;7.800;2023-03-15T00:23:54;99399.81;;;5.51;63.42
63556;BME280;49700;48.072;7.800;2023-03-15T00:26:20;99404.31;;;5.47;63.62
63556;BME280;49700;48.072;7.800;2023-03-15T00:28:45;99410.50;;;5.45;63.48
63556;BME280;49700;48.072;7.800;2023-03-15T00:31:18;99422.69;;;5.44;63.93
63556;BME280;49700;48.072;7.800;2023-03-15T00:33:44;99420.03;;;5.46;63.50
63556;BME280;49700;48.072;7.800;2023-03-15T00:36:10;99435.66;;;5.46;63.30
63556;BME280;49700;48.072;7.800;2023-03-15T00:38:37;99438.31;;;5.44;63.61
63556;BME280;49700;48.072;7.800;2023-03-15T00:41:09;99448.72;;;5.44;63.45
63556;BME280;49700;48.072;7.800;2023-03-15T00:43:35;99448.38;;;5.52;63.25
63556;BME280;49700;48.072;7.800;2023-03-15T00:46:00;99446.28;;;5.60;63.27
63556;BME280;49700;48.072;7.800;2023-03-15T00:48:27;99447.75;;;5.66;63.35
63556;BME280;49700;48.072;7.800;2023-03-15T00:51:07;99451.94;;;5.70;63.38
63556;BME280;49700;48.072;7.800;2023-03-15T00:53:34;99453.59;;;5.71;63.34
63556;BME280;49700;48.072;7.800;2023-03-15T00:56:31;99456.06;;;5.74;63.20
63556;BME280;49700;48.072;7.800;2023-03-15T00:58:57;99453.47;;;5.74;63.43
63556;BME280;49700;48.072;7.800;2023-03-15T01:01:26;99457.88;;;5.72;63.27
63556;BME280;49700;48.072;7.800;2023-03-15T01:03:51;99458.88;;;5.69;63.46
63556;BME280;49700;48.072;7.800;2023-03-15T01:06:23;99463.25;;;5.69;63.40
63556;BME280;49700;48.072;7.800;2023-03-15T01:08:49;99459.75;;;5.70;63.74
63556;BME280;49700;48.072;7.800;2023-03-15T01:11:22;99473.66;;;5.69;63.76
63556;BME280;49700;48.072;7.800;2023-03-15T01:13:53;99473.66;;;5.69;63.47
63556;BME280;49700;48.072;7.800;2023-03-15T01:16:20;99474.59;;;5.68;64.07
63556;BME280;49700;48.072;7.800;2023-03-15T01:18:45;99483.31;;;5.67;63.78
63556;BME280;49700;48.072;7.800;2023-03-15T01:21:13;99484.22;;;5.66;64.08
63556;BME280;49700;48.072;7.800;2023-03-15T01:23:39;99489.50;;;5.64;63.82
63556;BME280;49700;48.072;7.800;2023-03-15T01:26:07;99493.13;;;5.62;63.88
63556;BME280;49700;48.072;7.800;2023-03-15T01:28:34;99493.13;;;5.62;64.04
63556;BME280;49700;48.072;7.800;2023-03-15T01:30:59;99495.09;;;5.57;64.00
63556;BME280;49700;48.072;7.800;2023-03-15T01:33:24;99496.31;;;5.48;64.00
63556;BME280;49700;48.072;7.800;2023-03-15T01:36:01;99500.91;;;5.43;64.40
63556;BME280;49700;48.072;7.800;2023-03-15T01:38:28;99496.78;;;5.37;64.46
63556;BME280;49700;48.072;7.800;2023-03-15T01:40:54;99495.25;;;5.33;64.62
63556;BME280;49700;48.072;7.800;2023-03-15T01:43:22;99504.75;;;5.34;64.67
63556;BME280;49700;48.072;7.800;2023-03-15T01:50:53;99519.03;;;5.25;64.97
63556;BME280;49700;48.072;7.800;2023-03-15T01:53:22;99522.53;;;5.24;64.51
63556;BME280;49700;48.072;7.800;2023-03-15T01:55:51;99528.66;;;5.23;64.69
63556;BME280;49700;48.072;7.800;2023-03-15T01:58:23;99524.78;;;5.13;64.71
63556;BME280;49700;48.072;7.800;2023-03-15T02:00:51;99523.66;;;4.98;64.92
63556;BME280;49700;48.072;7.800;2023-03-15T02:03:39;99529.34;;;4.86;65.51
63556;BME280;49700;48.072;7.800;2023-03-15T02:06:15;99531.25;;;4.82;66.10
63556;BME280;49700;48.072;7.800;2023-03-15T02:08:51;99530.44;;;4.80;66.29
63556;BME280;49700;48.072;7.800;2023-03-15T02:11:19;99534.94;;;4.77;66.50
63556;BME280;49700;48.072;7.800;2023-03-15T02:13:48;99540.41;;;4.71;66.35
63556;BME280;49700;48.072;7.800;2023-03-15T02:16:15;99535.34;;;4.68;66.48
63556;BME280;49700;48.072;7.800;2023-03-15T02:18:46;99540.75;;;4.61;66.30
63556;BME280;49700;48.072;7.800;2023-03-15T02:23:37;99545.31;;;4.56;66.38
63556;BME280;49700;48.072;7.800;2023-03-15T02:26:23;99548.09;;;4.52;66.38
63556;BME280;49700;48.072;7.800;2023-03-15T02:28:51;99543.88;;;4.49;66.47
63556;BME280;49700;48.072;7.800;2023-03-15T02:31:20;99542.91;;;4.52;66.60
63556;BME280;49700;48.072;7.800;2023-03-15T02:33:51;99544.53;;;4.54;66.30
63556;BME280;49700;48.072;7.800;2023-03-15T02:36:25;99546.34;;;4.52;66.54
63556;BME280;49700;48.072;7.800;2023-03-15T02:38:52;99536.06;;;4.49;66.55
63556;BME280;49700;48.072;7.800;2023-03-15T02:41:23;99542.53;;;4.39;66.66
63556;BME280;49700;48.072;7.800;2023-03-15T02:43:54;99533.53;;;4.26;66.79
63556;BME280;49700;48.072;7.800;2023-03-15T02:46:23;99533.88;;;4.16;66.95
63556;BME280;49700;48.072;7.800;2023-03-15T02:48:49;99531.47;;;4.12;66.95
63556;BME280;49700;48.072;7.800;2023-03-15T02:51:21;99541.91;;;4.10;67.08
63556;BME280;49700;48.072;7.800;2023-03-15T02:53:49;99545.38;;;4.11;67.30
63556;BME280;49700;48.072;7.800;2023-03-15T02:56:15;99544.63;;;4.07;67.12
63556;BME280;49700;48.072;7.800;2023-03-15T02:58:41;99553.44;;;4.03;67.45
63556;BME280;49700;48.072;7.800;2023-03-15T03:01:11;99559.53;;;4.02;67.53
63556;BME280;49700;48.072;7.800;2023-03-15T03:03:39;99568.25;;;4.01;67.77
63556;BME280;49700;48.072;7.800;2023-03-15T03:06:05;99570.84;;;4.01;67.58
63556;BME280;49700;48.072;7.800;2023-03-15T03:08:30;99574.41;;;3.98;67.51
63556;BME280;49700;48.072;7.800;2023-03-15T03:10:56;99581.53;;;3.93;67.86
63556;BME280;49700;48.072;7.800;2023-03-15T03:13:21;99586.78;;;3.92;67.69
63556;BME280;49700;48.072;7.800;2023-03-15T03:15:50;99584.34;;;3.87;67.79
63556;BME280;49700;48.072;7.800;2023-03-15T03:18:27;99581.06;;;3.82;67.76
63556;BME280;49700;48.072;7.800;2023-03-15T03:20:57;99581.31;;;3.76;67.73
63556;BME280;49700;48.072;7.800;2023-03-15T03:23:28;99583.25;;;3.69;68.03
63556;BME280;49700;48.072;7.800;2023-03-15T03:25:55;99596.34;;;3.66;68.08
63556;BME280;49700;48.072;7.800;2023-03-15T03:28:22;99592.19;;;3.62;68.54
63556;BME280;49700;48.072;7.800;2023-03-15T03:30:49;99589.69;;;3.59;68.59
63556;BME280;49700;48.072;7.800;2023-03-15T03:33:15;99588.22;;;3.52;68.69
63556;BME280;49700;48.072;7.800;2023-03-15T03:35:40;99583.28;;;3.44;68.62
63556;BME280;49700;48.072;7.800;2023-03-15T03:38:08;99585.34;;;3.35;68.87
63556;BME280;49700;48.072;7.800;2023-03-15T03:40:38;99594.44;;;3.21;68.99
63556;BME280;49700;48.072;7.800;2023-03-15T03:43:05;99594.66;;;3.15;69.13
63556;BME280;49700;48.072;7.800;2023-03-15T03:45:32;99601.75;;;3.10;69.67
63556;BME280;49700;48.072;7.800;2023-03-15T03:47:58;99598.44;;;3.05;69.47
63556;BME280;49700;48.072;7.800;2023-03-15T03:50:24;99596.81;;;3.02;69.96
63556;BME280;49700;48.072;7.800;2023-03-15T03:52:50;99609.78;;;3.02;70.02
63556;BME280;49700;48.072;7.800;2023-03-15T03:55:21;99611.44;;;3.05;69.95
63556;BME280;49700;48.072;7.800;2023-03-15T03:57:50;99607.84;;;3.09;69.88
63556;BME280;49700;48.072;7.800;2023-03-15T04:00:28;99607.84;;;3.09;69.69
63556;BME280;49700;48.072;7.800;2023-03-15T04:02:54;99609.53;;;3.10;69.71
63556;BME280;49700;48.072;7.800;2023-03-15T04:05:20;99602.59;;;3.10;69.77
63556;BME280;49700;48.072;7.800;2023-03-15T04:07:45;99613.03;;;3.09;69.59
63556;BME280;49700;48.072;7.800;2023-03-15T04:10:14;99622.72;;;3.04;69.73
63556;BME280;49700;48.072;7.800;2023-03-15T04:12:42;99629.88;;;2.97;69.93
63556;BME280;49700;48.072;7.800;2023-03-15T04:15:12;99626.59;;;2.91;70.15
63556;BME280;49700;48.072;7.800;2023-03-15T04:17:38;99633.56;;;2.88;70.08
63556;BME280;49700;48.072;7.800;2023-03-15T04:20:04;99643.97;;;2.88;70.17
63556;BME280;49700;48.072;7.800;2023-03-15T04:22:38;99647.56;;;2.84;70.25
63556;BME280;49700;48.072;7.800;2023-03-15T04:25:29;99636.38;;;2.82;69.95
63556;BME280;49700;48.072;7.800;2023-03-15T04:28:21;99639.16;;;2.76;69.78
63556;BME280;49700;48.072;7.800;2023-03-15T04:31:05;99635.03;;;2.71;70.03
63556;BME280;49700;48.072;7.800;2023-03-15T04:33:58;99639.44;;;2.67;70.54
63556;BME280;49700;48.072;7.800;2023-03-15T04:36:43;99643.69;;;2.70;70.42
63556;BME280;49700;48.072;7.800;2023-03-15T04:39:28;99646.16;;;2.74;70.59
63556;BME280;49700;48.072;7.800;2023-03-15T04:42:13;99650.41;;;2.75;70.34
63556;BME280;49700;48.072;7.800;2023-03-15T04:45:00;99640.34;;;2.66;70.21
63556;BME280;49700;48.072;7.800;2023-03-15T04:47:52;99651.78;;;2.59;70.84
63556;BME280;49700;48.072;7.800;2023-03-15T04:50:57;99658.78;;;2.57;70.91
63556;BME280;49700;48.072;7.800;2023-03-15T04:53:37;99665.94;;;2.49;70.88
63556;BME280;49700;48.072;7.800;2023-03-15T04:56:22;99659.28;;;2.40;70.95
63556;BME280;49700;48.072;7.800;2023-03-15T04:59:06;99662.91;;;2.34;71.31
63556;BME280;49700;48.072;7.800;2023-03-15T05:01:54;99656.97;;;2.31;71.24
63556;BME280;49700;48.072;7.800;2023-03-15T05:04:38;99648.34;;;2.30;71.48
63556;BME280;49700;48.072;7.800;2023-03-15T05:07:27;99657.81;;;2.31;71.19
63556;BME280;49700;48.072;7.800;2023-03-15T05:10:16;99648.28;;;2.32;71.24
63556;BME280;49700;48.072;7.800;2023-03-15T05:12:51;99657.81;;;2.31;71.13
63556;BME280;49700;48.072;7.800;2023-03-15T05:15:23;99646.56;;;2.32;71.20
63556;BME280;49700;48.072;7.800;2023-03-15T05:18:09;99652.44;;;2.37;71.43
63556;BME280;49700;48.072;7.800;2023-03-15T05:20:59;99660.16;;;2.40;71.19
63556;BME280;49700;48.072;7.800;2023-03-15T05:23:34;99654.06;;;2.41;70.80
63556;BME280;49700;48.072;7.800;2023-03-15T05:26:26;99665.25;;;2.42;71.35
63556;BME280;49700;48.072;7.800;2023-03-15T05:29:17;99670.56;;;2.37;71.05
63556;BME280;49700;48.072;7.800;2023-03-15T05:32:05;99676.94;;;2.27;71.06
63556;BME280;49700;48.072;7.800;2023-03-15T05:34:47;99685.81;;;2.18;71.26
63556;BME280;49700;48.072;7.800;2023-03-15T05:37:30;99692.81;;;2.15;71.26
63556;BME280;49700;48.072;7.800;2023-03-15T05:40:32;99685.88;;;2.17;71.51
63556;BME280;49700;48.072;7.800;2023-03-15T05:43:17;99684.00;;;2.22;71.47
63556;BME280;49700;48.072;7.800;2023-03-15T05:46:03;99690.78;;;2.26;71.33
63556;BME280;49700;48.072;7.800;2023-03-15T05:48:38;99694.19;;;2.28;71.28
63556;BME280;49700;48.072;7.800;2023-03-15T05:51:28;99690.69;;;2.29;71.33
63556;BME280;49700;48.072;7.800;2023-03-15T05:54:14;99693.28;;;2.29;71.33
63556;BME280;49700;48.072;7.800;2023-03-15T05:57:09;99694.94;;;2.32;71.24
63556;BME280;49700;48.072;7.800;2023-03-15T05:59:49;99687.97;;;2.34;71.12
63556;BME280;49700;48.072;7.800;2023-03-15T06:02:33;99700.91;;;2.35;71.11
63556;BME280;49700;48.072;7.800;2023-03-15T06:05:14;99694.81;;;2.36;71.47
63556;BME280;49700;48.072;7.800;2023-03-15T06:07:40;99692.22;;;2.36;71.38
63556;BME280;49700;48.072;7.800;2023-03-15T06:10:06;99709.47;;;2.37;71.38
63556;BME280;49700;48.072;7.800;2023-03-15T06:12:31;99710.25;;;2.41;71.47
63556;BME280;49700;48.072;7.800;2023-03-15T06:14:57;99705.81;;;2.44;71.26
63556;BME280;49700;48.072;7.800;2023-03-15T06:17:23;99710.88;;;2.49;71.54
63556;BME280;49700;48.072;7.800;2023-03-15T06:19:49;99707.34;;;2.52;71.08
63556;BME280;49700;48.072;7.800;2023-03-15T06:22:14;99715.22;;;2.49;71.18
63556;BME280;49700;48.072;7.800;2023-03-15T06:24:47;99718.88;;;2.40;70.97
63556;BME280;49700;48.072;7.800;2023-03-15T06:27:12;99716.56;;;2.31;70.96
63556;BME280;49700;48.072;7.800;2023-03-15T06:29:38;99721.78;;;2.29;71.56
63556;BME280;49700;48.072;7.800;2023-03-15T06:32:04;99725.16;;;2.33;71.49
63556;BME280;49700;48.072;7.800;2023-03-15T06:34:31;99727.53;;;2.40;70.84
63556;BME280;49700;48.072;7.800;2023-03-15T06:36:56;99725.56;;;2.49;70.75
63556;BME280;49700;48.072;7.800;2023-03-15T06:39:22;99721.91;;;2.56;70.90
63556;BME280;49700;48.072;7.800;2023-03-15T06:41:50;99723.44;;;2.63;70.91
63556;BME280;49700;48.072;7.800;2023-03-15T06:44:19;99729.34;;;2.68;70.91
63556;BME280;49700;48.072;7.800;2023-03-15T06:46:47;99727.44;;;2.73;70.64
63556;BME280;49700;48.072;7.800;2023-03-15T06:49:13;99735.00;;;2.81;70.51
63556;BME280;49700;48.072;7.800;2023-03-15T06:51:40;99739.06;;;2.90;70.39
63556;BME280;49700;48.072;7.800;2023-03-15T06:54:08;99735.38;;;2.97;70.28
63556;BME280;49700;48.072;7.800;2023-03-15T06:56:34;99744.72;;;3.02;70.16
63556;BME280;49700;48.072;7.800;2023-03-15T06:59:01;99748.00;;;3.09;69.76
63556;BME280;49700;48.072;7.800;2023-03-15T07:01:27;99753.78;;;3.17;69.87
63556;BME280;49700;48.072;7.800;2023-03-15T07:03:52;99755.38;;;3.21;69.74
63556;BME280;49700;48.072;7.800;2023-03-15T07:06:18;99758.69;;;3.26;69.56
63556;BME280;49700;48.072;7.800;2023-03-15T07:08:43;99755.94;;;3.31;69.72
63556;BME280;49700;48.072;7.800;2023-03-15T07:11:08;99770.47;;;3.37;69.74
63556;BME280;49700;48.072;7.800;2023-03-15T07:13:34;99763.41;;;3.42;69.56
63556;BME280;49700;48.072;7.800;2023-03-15T07:16:00;99764.00;;;3.50;69.71
63556;BME280;49700;48.072;7.800;2023-03-15T07:18:25;99762.00;;;3.58;69.18
63556;BME280;49700;48.072;7.800;2023-03-15T07:20:55;99764.31;;;3.67;69.13
63556;BME280;49700;48.072;7.800;2023-03-15T07:23:20;99758.00;;;3.74;68.99
63556;BME280;49700;48.072;7.800;2023-03-15T07:25:46;99772.41;;;3.85;68.77
63556;BME280;49700;48.072;7.800;2023-03-15T07:28:12;99771.22;;;3.93;68.51
63556;BME280;49700;48.072;7.800;2023-03-15T07:30:37;99766.63;;;4.02;68.30
63556;BME280;49700;48.072;7.800;2023-03-15T07:33:02;99768.97;;;4.09;68.18
63556;BME280;49700;48.072;7.800;2023-03-15T07:35:28;99764.34;;;4.17;67.83
63556;BME280;49700;48.072;7.800;2023-03-15T07:37:53;99769.25;;;4.27;67.57
63556;BME280;49700;48.072;7.800;2023-03-15T07:40:18;99767.94;;;4.38;67.09
63556;BME280;49700;48.072;7.800;2023-03-15T07:42:44;99768.44;;;4.48;66.52
63556;BME280;49700;48.072;7.800;2023-03-15T07:45:11;99773.34;;;4.57;66.32
63556;BME280;49700;48.072;7.800;2023-03-15T07:47:37;99778.31;;;4.63;66.50
63556;BME280;49700;48.072;7.800;2023-03-15T07:50:04;99781.44;;;4.73;66.22
63556;BME280;49700;48.072;7.800;2023-03-15T07:52:30;99789.69;;;4.84;66.07
63556;BME280;49700;48.072;7.800;2023-03-15T07:54:56;99779.78;;;4.94;66.23
63556;BME280;49700;48.072;7.800;2023-03-15T07:57:21;99777.75;;;5.02;65.70
63556;BME280;49700;48.072;7.800;2023-03-15T07:59:46;99785.31;;;5.08;65.45
63556;BME280;49700;48.072;7.800;2023-03-15T08:02:12;99778.84;;;5.19;65.15
63556;BME280;49700;48.072;7.800;2023-03-15T08:04:38;99782.84;;;5.27;65.23
63556;BME280;49700;48.072;7.800;2023-03-15T08:07:04;99772.97;;;5.36;64.91
63556;BME280;49700;48.072;7.800;2023-03-15T08:09:30;99776.22;;;5.63;64.80
63556;BME280;49700;48.072;7.800;2023-03-15T08:11:57;99773.75;;;6.43;63.08
63556;BME280;49700;48.072;7.800;2023-03-15T08:14:23;99764.00;;;7.41;60.25
63556;BME280;49700;48.072;7.800;2023-03-15T08:16:49;99770.28;;;8.43;57.00
63556;BME280;49700;48.072;7.800;2023-03-15T08:19:15;99765.78;;;9.26;55.14
63556;BME280;49700;48.072;7.800;2023-03-15T08:21:40;99767.03;;;9.96;53.00
63556;BME280;49700;48.072;7.800;2023-03-15T08:24:10;99754.19;;;10.65;51.06
63556;BME280;49700;48.072;7.800;2023-03-15T08:26:36;99759.75;;;11.16;49.79
63556;BME280;49700;48.072;7.800;2023-03-15T08:29:01;99753.53;;;11.32;49.23
63556;BME280;49700;48.072;7.800;2023-03-15T08:31:27;99744.59;;;11.61;48.65
63556;BME280;49700;48.072;7.800;2023-03-15T08:33:52;99745.66;;;12.11;47.51
63556;BME280;49700;48.072;7.800;2023-03-15T08:36:18;99743.84;;;12.63;46.15
63556;BME280;49700;48.072;7.800;2023-03-15T08:38:44;99737.53;;;13.15;45.06
63556;BME280;49700;48.072;7.800;2023-03-15T08:41:09;99731.97;;;13.55;43.71
63556;BME280;49700;48.072;7.800;2023-03-15T08:43:34;99737.75;;;13.60;42.78
63556;BME280;49700;48.072;7.800;2023-03-15T08:46:00;99737.22;;;13.79;42.24
63556;BME280;49700;48.072;7.800;2023-03-15T08:48:25;99734.03;;;13.98;41.49
63556;BME280;49700;48.072;7.800;2023-03-15T08:50:51;99733.72;;;14.14;40.45
63556;BME280;49700;48.072;7.800;2023-03-15T08:53:16;99741.31;;;14.41;39.76
63556;BME280;49700;48.072;7.800;2023-03-15T08:55:42;99742.81;;;14.56;39.50
63556;BME280;49700;48.072;7.800;2023-03-15T08:58:07;99746.44;;;14.67;39.30
63556;BME280;49700;48.072;7.800;2023-03-15T09:00:33;99749.06;;;14.89;38.81
63556;BME280;49700;48.072;7.800;2023-03-15T09:02:58;99746.97;;;15.15;38.05
63556;BME280;49700;48.072;7.800;2023-03-15T09:05:24;99749.81;;;15.35;37.38
63556;BME280;49700;48.072;7.800;2023-03-15T09:07:50;99752.53;;;15.56;36.88
63556;BME280;49700;48.072;7.800;2023-03-15T09:10:18;99752.81;;;15.74;36.48
63556;BME280;49700;48.072;7.800;2023-03-15T09:12:45;99760.13;;;15.81;35.97
63556;BME280;49700;48.072;7.800;2023-03-15T09:15:12;99757.16;;;15.63;35.38
63556;BME280;49700;48.072;7.800;2023-03-15T09:17:38;99767.25;;;15.37;35.32
63556;BME280;49700;48.072;7.800;2023-03-15T09:20:05;99763.69;;;15.16;35.26
63556;BME280;49700;48.072;7.800;2023-03-15T09:22:39;99771.16;;;14.66;35.86
63556;BME280;49700;48.072;7.800;2023-03-15T09:25:05;99763.03;;;14.33;36.58
63556;BME280;49700;48.072;7.800;2023-03-15T09:27:31;99758.00;;;14.19;37.03
63556;BME280;49700;48.072;7.800;2023-03-15T09:29:56;99769.72;;;14.04;37.12
63556;BME280;49700;48.072;7.800;2023-03-15T09:32:22;99767.25;;;13.78;37.63
63556;BME280;49700;48.072;7.800;2023-03-15T09:34:47;99765.41;;;13.43;38.37
63556;BME280;49700;48.072;7.800;2023-03-15T09:37:14;99772.41;;;13.19;38.25
63556;BME280;49700;48.072;7.800;2023-03-15T09:39:39;99777.13;;;12.90;38.92
63556;BME280;49700;48.072;7.800;2023-03-15T09:42:12;99774.19;;;12.69;39.41
63556;BME280;49700;48.072;7.800;2023-03-15T09:44:46;99777.25;;;12.50;39.71
63556;BME280;49700;48.072;7.800;2023-03-15T09:47:25;99784.72;;;12.17;40.16
63556;BME280;49700;48.072;7.800;2023-03-15T09:52:41;99787.03;;;12.09;41.20
63556;BME280;49700;48.072;7.800;2023-03-15T09:55:21;99795.88;;;12.08;40.82
63556;BME280;49700;48.072;7.800;2023-03-15T09:57:51;99788.94;;;12.07;41.08
63556;BME280;49700;48.072;7.800;2023-03-15T10:00:26;99796.09;;;12.05;41.22
63556;BME280;49700;48.072;7.800;2023-03-15T10:02:57;99792.72;;;12.03;41.47
63556;BME280;49700;48.072;7.800;2023-03-15T10:05:40;99790.91;;;11.91;41.76
63556;BME280;49700;48.072;7.800;2023-03-15T10:08:15;99798.06;;;11.89;41.73
63556;BME280;49700;48.072;7.800;2023-03-15T10:11:12;99786.91;;;11.98;41.21
63556;BME280;49700;48.072;7.800;2023-03-15T10:16:48;99795.13;;;11.79;40.89
63556;BME280;49700;48.072;7.800;2023-03-15T10:19:39;99794.22;;;11.80;41.08
63556;BME280;49700;48.072;7.800;2023-03-15T10:22:20;99790.84;;;11.78;40.41
63556;BME280;49700;48.072;7.800;2023-03-15T10:24:53;99793.16;;;11.83;40.14
63556;BME280;49700;48.072;7.800;2023-03-15T10:29:52;99782.63;;;12.35;38.44
63556;BME280;49700;48.072;7.800;2023-03-15T10:32:22;99778.22;;;12.61;38.11
63556;BME280;49700;48.072;7.800;2023-03-15T10:34:52;99776.50;;;12.73;37.11
63556;BME280;49700;48.072;7.800;2023-03-15T10:37:19;99787.50;;;12.54;37.79
63556;BME280;49700;48.072;7.800;2023-03-15T10:39:52;99777.59;;;12.32;37.99
63556;BME280;49700;48.072;7.800;2023-03-15T10:42:30;99774.31;;;12.16;37.41
63556;BME280;49700;48.072;7.800;2023-03-15T10:44:58;99775.16;;;12.16;37.63
63556;BME280;49700;48.072;7.800;2023-03-15T10:47:25;99767.88;;;12.20;36.94
63556;BME280;49700;48.072;7.800;2023-03-15T10:49:57;99764.31;;;12.21;37.04
63556;BME280;49700;48.072;7.800;2023-03-15T10:54:56;99770.19;;;12.12;37.66
63556;BME280;49700;48.072;7.800;2023-03-15T10:57:26;99762.28;;;11.99;38.24
63556;BME280;49700;48.072;7.800;2023-03-15T10:59:56;99760.03;;;11.66;38.35
63556;BME280;49700;48.072;7.800;2023-03-15T11:02:23;99755.91;;;11.49;39.10
63556;BME280;49700;48.072;7.800;2023-03-15T11:04:59;99767.31;;;11.35;39.70
63556;BME280;49700;48.072;7.800;2023-03-15T11:07:26;99764.88;;;11.32;40.14
63556;BME280;49700;48.072;7.800;2023-03-15T11:09:54;99774.84;;;11.54;39.75
63556;BME280;49700;48.072;7.800;2023-03-15T11:14:55;99760.84;;;11.81;39.25
63556;BME280;49700;48.072;7.800;2023-03-15T11:17:27;99757.88;;;11.72;39.38
63556;BME280;49700;48.072;7.800;2023-03-15T11:20:14;99756.56;;;11.65;38.51
63556;BME280;49700;48.072;7.800;2023-03-15T11:22:43;99759.75;;;11.70;38.08
63556;BME280;49700;48.072;7.800;2023-03-15T11:25:15;99746.94;;;11.79;37.48
63556;BME280;49700;48.072;7.800;2023-03-15T11:27:42;99748.72;;;11.78;37.33
63556;BME280;49700;48.072;7.800;2023-03-15T11:30:13;99742.78;;;11.89;37.26
63556;BME280;49700;48.072;7.800;2023-03-15T11:32:40;99736.81;;;11.85;37.51
63556;BME280;49700;48.072;7.800;2023-03-15T11:35:11;99740.63;;;11.81;37.54
63556;BME280;49700;48.072;7.800;2023-03-15T11:37:54;99734.06;;;11.74;37.08
63556;BME280;49700;48.072;7.800;2023-03-15T11:40:24;99739.00;;;11.66;37.18
63556;BME280;49700;48.072;7.800;2023-03-15T11:42:58;99730.28;;;11.65;37.25
63556;BME280;49700;48.072;7.800;2023-03-15T11:48:30;99727.75;;;11.77;35.51
63556;BME280;49700;48.072;7.800;2023-03-15T11:51:00;99717.41;;;11.61;34.92
63556;BME280;49700;48.072;7.800;2023-03-15T11:53:30;99719.06;;;11.49;34.77
63556;BME280;49700;48.072;7.800;2023-03-15T11:56:19;99716.72;;;11.44;34.62
63556;BME280;49700;48.072;7.800;2023-03-15T11:58:59;99722.00;;;11.44;34.94
63556;BME280;49700;48.072;7.800;2023-03-15T12:01:26;99720.03;;;11.48;35.08
63556;BME280;49700;48.072;7.800;2023-03-15T12:06:50;99725.72;;;11.55;34.81
63556;BME280;49700;48.072;7.800;2023-03-15T12:09:39;99723.81;;;11.57;34.57
63556;BME280;49700;48.072;7.800;2023-03-15T12:17:53;99723.03;;;11.82;34.43
63556;BME280;49700;48.072;7.800;2023-03-15T12:20:26;99719.31;;;11.86;34.40
63556;BME280;49700;48.072;7.800;2023-03-15T12:24:04;99720.19;;;11.85;34.18
63556;BME280;49700;48.072;7.800;2023-03-15T12:26:05;99720.69;;;11.91;33.81
63556;BME280;49700;48.072;7.800;2023-03-15T12:28:40;99720.00;;;11.88;33.94
63556;BME280;49700;48.072;7.800;2023-03-15T12:31:11;99710.44;;;11.87;33.71
63556;BME280;49700;48.072;7.800;2023-03-15T12:34:04;99710.44;;;11.87;33.94
63556;BME280;49700;48.072;7.800;2023-03-15T12:36:38;99706.16;;;11.86;33.62
63556;BME280;49700;48.072;7.800;2023-03-15T12:41:43;99697.69;;;11.93;33.98
63556;BME280;49700;48.072;7.800;2023-03-15T12:44:37;99700.25;;;11.95;34.39
63556;BME280;49700;48.072;7.800;2023-03-15T12:47:05;99703.41;;;12.00;34.39
63556;BME280;49700;48.072;7.800;2023-03-15T12:49:32;99691.53;;;12.07;34.86
63556;BME280;49700;48.072;7.800;2023-03-15T12:54:45;99697.19;;;12.14;35.22
63556;BME280;49700;48.072;7.800;2023-03-15T12:57:13;99698.25;;;12.11;35.75
63556;BME280;49700;48.072;7.800;2023-03-15T13:02:25;99702.78;;;12.09;35.59
63556;BME280;49700;48.072;7.800;2023-03-15T13:07:46;99687.59;;;11.87;35.95
63556;BME280;49700;48.072;7.800;2023-03-15T13:10:31;99683.97;;;11.76;35.74
63556;BME280;49700;48.072;7.800;2023-03-15T13:13:20;99679.53;;;11.63;35.53
63556;BME280;49700;48.072;7.800;2023-03-15T13:16:09;99674.06;;;11.66;36.10
63556;BME280;49700;48.072;7.800;2023-03-15T13:19:00;99677.25;;;11.84;35.93
63556;BME280;49700;48.072;7.800;2023-03-15T13:21:33;99666.75;;;11.97;36.03
63556;BME280;49700;48.072;7.800;2023-03-15T13:24:00;99671.91;;;12.11;36.04
63556;BME280;49700;48.072;7.800;2023-03-15T13:29:12;99671.19;;;12.22;34.85
63556;BME280;49700;48.072;7.800;2023-03-15T13:31:39;99660.34;;;12.14;35.05
63556;BME280;49700;48.072;7.800;2023-03-15T13:34:21;99665.72;;;12.12;35.52
63556;BME280;49700;48.072;7.800;2023-03-15T13:36:53;99664.31;;;12.07;35.36
63556;BME280;49700;48.072;7.800;2023-03-15T13:39:29;99658.66;;;12.00;35.39
63556;BME280;49700;48.072;7.800;2023-03-15T13:41:59;99663.19;;;11.98;35.61
63556;BME280;49700;48.072;7.800;2023-03-15T13:44:26;99666.03;;;11.95;35.90
63556;BME280;49700;48.072;7.800;2023-03-15T13:46:52;99660.97;;;11.92;35.77
63556;BME280;49700;48.072;7.800;2023-03-15T13:49:19;99657.50;;;11.91;35.98
63556;BME280;49700;48.072;7.800;2023-03-15T13:51:46;99661.50;;;11.97;35.75
63556;BME280;49700;48.072;7.800;2023-03-15T13:54:27;99656.97;;;11.99;35.81
63556;BME280;49700;48.072;7.800;2023-03-15T13:59:25;99646.13;;;12.04;35.49
63556;BME280;49700;48.072;7.800;2023-03-15T14:01:52;99652.44;;;12.01;35.60
63556;BME280;49700;48.072;7.800;2023-03-15T14:04:21;99647.91;;;12.03;35.87
63556;BME280;49700;48.072;7.800;2023-03-15T14:06:49;99645.06;;;12.06;35.80
63556;BME280;49700;48.072;7.800;2023-03-15T14:09:26;99650.53;;;12.03;35.96
63556;BME280;49700;48.072;7.800;2023-03-15T14:12:14;99648.88;;;12.02;36.07
63556;BME280;49700;48.072;7.800;2023-03-15T14:14:49;99653.47;;;11.99;36.42
63556;BME280;49700;48.072;7.800;2023-03-15T14:17:25;99653.69;;;11.95;36.24
63556;BME280;49700;48.072;7.800;2023-03-15T14:19:53;99655.91;;;11.89;36.45